To NAV CANADA Home Page Login to a new session Search on AWWS site Disclaimer Vers la page française équivalente Tips FAQ What's new on the site To the Forecasts and Observations / NOTAM section To "File a Flight Plan" website Publications and other links Update of the User's profile FIC Telephone Numbers My Weather Data Folder Route Weather Data Regional Weather Data Local Weather Data To the Forecasts and Observations / NOTAM section
Request Generated 11/16/2018 at 01:07:22 UTC . Weather information available at that time is displayed.

METAR/TAF

LYNN LAKE/MB    (show WxCam)

METAR CYYL 160100Z AUTO 04008KT 9SM OVC043 M21/M23 A3026 RMK SLP294=
SPECI CYYL 160053Z AUTO 03007KT 9SM OVC043 M21/M23 A3026 RMK SLP293=
METAR CYYL 160000Z AUTO 04007KT 6SM -SN SCT010 OVC045 M20/M21 A3025 RMK SLP289=
SPECI CYYL 152356Z AUTO 03008KT 8SM -SN SCT010 OVC045 M20/M21 A3025 RMK SLP290=
SPECI CYYL 152347Z AUTO 02006KT 6SM -SN BKN010 OVC045 M20/M21 A3026 RMK SLP290=
SPECI CYYL 152317Z AUTO 02007KT 5SM -SN OVC010 M19/M21 A3025 RMK SLP287=
METAR CYYL 152300Z AUTO 03007KT 9SM -SN OVC012 M19/M20 A3025 RMK SLP286=

TAF CYYL 160038Z 1601/1613 03007KT P6SM BKN050 TEMPO 1601/1613 5SM
-SN BKN020
RMK FCST BASED ON AUTO OBS. NXT FCST BY 160700Z=
Your time UTC time
Weather data provided by Environment Canada and NAV CANADA